createdAt,value
2022-09-12T00:00:41.862Z,13.55
2022-09-12T00:01:41.859Z,13.63
2022-09-12T00:02:41.843Z,13.60
2022-09-12T00:03:41.827Z,13.55
2022-09-12T00:04:41.836Z,13.59
2022-09-12T00:05:41.812Z,13.60
2022-09-12T00:06:41.817Z,13.55
2022-09-12T00:07:41.792Z,13.57
2022-09-12T00:08:41.984Z,13.70
2022-09-12T00:09:41.775Z,13.52
2022-09-12T00:10:41.761Z,13.55
2022-09-12T00:11:41.748Z,13.59
2022-09-12T00:12:42.746Z,13.62
2022-09-12T00:13:42.046Z,13.55
2022-09-12T00:14:42.731Z,13.52
2022-09-12T00:15:41.724Z,13.54
2022-09-12T00:16:41.741Z,13.44
2022-09-12T00:17:41.693Z,13.46
2022-09-12T00:18:41.733Z,13.48
2022-09-12T00:19:41.691Z,13.44
2022-09-12T00:20:41.660Z,13.45
2022-09-12T00:21:41.647Z,13.41
2022-09-12T00:22:41.639Z,13.45
2022-09-12T00:23:41.636Z,13.41
2022-09-12T00:24:41.640Z,13.49
2022-09-12T00:25:41.621Z,13.48
2022-09-12T00:26:41.599Z,13.48
2022-09-12T00:27:41.589Z,13.41
2022-09-12T00:28:41.677Z,13.49
2022-09-12T00:29:41.599Z,13.52
2022-09-12T00:30:41.565Z,13.42
2022-09-12T00:31:41.630Z,13.44
2022-09-12T00:32:41.545Z,13.38
2022-09-12T00:33:41.543Z,13.46
2022-09-12T00:34:41.514Z,13.49
2022-09-12T00:35:41.525Z,13.49
2022-09-12T00:36:41.519Z,13.38
2022-09-12T00:37:41.489Z,13.39
2022-09-12T00:38:41.513Z,13.32
2022-09-12T00:39:41.505Z,13.29
2022-09-12T00:40:41.461Z,13.39
2022-09-12T00:41:41.462Z,13.20
2022-09-12T00:42:41.447Z,13.28
2022-09-12T00:43:41.421Z,13.12
2022-09-12T00:44:41.433Z,13.10
2022-09-12T00:45:41.459Z,13.14
2022-09-12T00:46:41.413Z,13.20
2022-09-12T00:47:41.388Z,13.19
2022-09-12T00:48:41.386Z,13.17
2022-09-12T00:49:41.389Z,13.22
2022-09-12T00:50:41.352Z,13.22
2022-09-12T00:51:41.349Z,13.22
2022-09-12T00:52:41.330Z,13.25
2022-09-12T00:53:41.335Z,13.29
2022-09-12T00:54:41.338Z,13.19
2022-09-12T00:55:41.318Z,13.33
2022-09-12T00:56:41.315Z,13.19
2022-09-12T00:57:41.290Z,13.20
2022-09-12T00:58:41.321Z,13.08
2022-09-12T00:59:41.289Z,13.15
2022-09-12T01:00:41.269Z,13.25
2022-09-12T01:01:41.360Z,13.30
2022-09-12T01:02:41.251Z,13.25
2022-09-12T01:03:41.229Z,13.36
2022-09-12T01:04:41.244Z,13.29
2022-09-12T01:05:41.226Z,13.38
2022-09-12T01:06:41.310Z,13.26
2022-09-12T01:07:41.198Z,13.26
2022-09-12T01:08:41.211Z,13.22
2022-09-12T01:09:41.173Z,13.19
2022-09-12T01:10:41.161Z,13.20
2022-09-12T01:11:41.167Z,13.00
2022-09-12T01:12:41.172Z,12.97
2022-09-12T01:13:41.151Z,12.92
2022-09-12T01:14:41.122Z,12.93
2022-09-12T01:15:41.113Z,12.92
2022-09-12T01:16:41.147Z,12.86
2022-09-12T01:17:41.109Z,12.83
2022-09-12T01:18:41.113Z,13.03
2022-09-12T01:19:41.082Z,13.01
2022-09-12T01:20:41.083Z,12.97
2022-09-12T01:21:41.063Z,13.01
2022-09-12T01:22:41.046Z,13.03
2022-09-12T01:23:41.035Z,12.96
2022-09-12T01:24:41.031Z,13.05
2022-09-12T01:25:41.043Z,12.97
2022-09-12T01:26:41.044Z,12.97
2022-09-12T01:27:40.999Z,13.04
2022-09-12T01:28:40.990Z,12.86
2022-09-12T01:29:40.983Z,12.90
2022-09-12T01:30:40.960Z,12.97
2022-09-12T01:31:40.980Z,12.96
2022-09-12T01:32:40.944Z,13.03
2022-09-12T01:33:40.952Z,12.92
2022-09-12T01:36:05.561Z,13.05
2022-09-12T01:37:05.602Z,12.97
2022-09-12T01:38:05.560Z,13.14
2022-09-12T01:39:06.683Z,13.03
2022-09-12T01:40:06.704Z,13.05
2022-09-12T01:41:06.660Z,13.05
2022-09-12T01:42:06.659Z,13.03
2022-09-12T01:43:06.660Z,13.10
2022-09-12T01:44:06.622Z,13.17
2022-09-12T01:45:06.617Z,13.20
2022-09-12T01:46:06.692Z,13.15
2022-09-12T01:47:06.595Z,13.04
2022-09-12T01:48:06.603Z,13.07
2022-09-12T01:49:06.598Z,13.11
2022-09-12T01:50:06.559Z,13.07
2022-09-12T01:51:06.573Z,13.04
2022-09-12T01:52:06.553Z,13.05
2022-09-12T01:53:06.544Z,13.14
2022-09-12T01:54:06.546Z,13.04
2022-09-12T01:55:09.569Z,13.14
2022-09-12T01:56:06.551Z,13.11
2022-09-12T01:57:06.523Z,13.05
2022-09-12T01:58:06.508Z,13.00
2022-09-12T01:59:06.494Z,13.10
2022-09-12T02:00:06.479Z,13.01
2022-09-12T02:01:06.537Z,13.08
2022-09-12T02:02:06.535Z,13.00
2022-09-12T02:03:06.447Z,12.89
2022-09-12T02:04:06.436Z,12.90
2022-09-12T02:05:06.429Z,12.87
2022-09-12T02:06:06.433Z,12.75
2022-09-12T02:07:06.406Z,12.75
2022-09-12T02:08:06.390Z,12.71
2022-09-12T02:09:06.387Z,12.64
2022-09-12T02:10:06.371Z,12.75
2022-09-12T02:11:06.398Z,12.65
2022-09-12T02:12:06.377Z,12.64
2022-09-12T02:13:06.342Z,12.64
2022-09-12T02:14:06.335Z,12.68
2022-09-12T02:15:06.343Z,12.64
2022-09-12T02:16:06.360Z,12.74
2022-09-12T02:17:06.325Z,12.60
2022-09-12T02:18:06.287Z,12.60
2022-09-12T02:19:06.281Z,12.67
2022-09-12T02:20:06.278Z,12.54
2022-09-12T02:21:06.263Z,12.53
2022-09-12T02:22:06.277Z,12.65
2022-09-12T02:23:06.248Z,12.53
2022-09-12T02:24:06.243Z,12.53
2022-09-12T02:25:06.227Z,12.57
2022-09-12T02:26:06.221Z,12.59
2022-09-12T02:27:06.244Z,12.46
2022-09-12T02:28:06.202Z,12.53
2022-09-12T02:29:06.192Z,12.45
2022-09-12T02:30:06.178Z,12.41
2022-09-12T02:31:06.215Z,12.45
2022-09-12T02:32:06.175Z,12.49
2022-09-12T02:33:06.149Z,12.54
2022-09-12T02:34:06.137Z,12.57
2022-09-12T02:35:06.135Z,12.52
2022-09-12T02:36:06.166Z,12.57
2022-09-12T02:37:06.133Z,12.46
2022-09-12T02:38:06.100Z,12.42
2022-09-12T02:39:06.081Z,12.28
2022-09-12T02:40:06.143Z,12.46
2022-09-12T02:41:06.067Z,12.28
2022-09-12T02:42:06.051Z,12.28
2022-09-12T02:43:06.046Z,12.23
2022-09-12T02:44:06.040Z,12.31
2022-09-12T02:45:06.046Z,12.27
2022-09-12T02:46:06.081Z,12.37
2022-09-12T02:47:06.013Z,12.45
2022-09-12T02:48:06.025Z,12.46
2022-09-12T02:49:05.990Z,12.46
2022-09-12T02:50:05.987Z,12.56
2022-09-12T02:51:05.969Z,12.67
2022-09-12T02:52:05.955Z,12.67
2022-09-12T02:53:05.972Z,12.64
2022-09-12T02:54:05.944Z,12.74
2022-09-12T02:55:05.958Z,12.70
2022-09-12T02:56:05.921Z,12.72
2022-09-12T02:57:05.919Z,12.79
2022-09-12T02:58:05.898Z,12.65
2022-09-12T02:59:05.897Z,12.64
2022-09-12T03:00:05.911Z,12.60
2022-09-12T03:01:05.943Z,12.68
2022-09-12T03:02:05.903Z,12.67
2022-09-12T03:03:05.874Z,12.56
2022-09-12T03:04:05.843Z,12.56
2022-09-12T03:05:05.835Z,12.42
2022-09-12T03:06:05.851Z,12.50
2022-09-12T03:07:05.814Z,12.45
2022-09-12T03:08:05.813Z,12.29
2022-09-12T03:09:05.795Z,12.29
2022-09-12T03:10:05.781Z,12.28
2022-09-12T03:11:05.806Z,12.17
2022-09-12T03:12:05.762Z,12.14
2022-09-12T03:13:05.800Z,12.17
2022-09-12T03:14:05.757Z,12.19
2022-09-12T03:15:05.742Z,12.16
2022-09-12T03:16:05.779Z,12.16
2022-09-12T03:17:05.724Z,12.09
2022-09-12T03:18:05.727Z,12.12
2022-09-12T03:19:05.711Z,12.16
2022-09-12T03:20:05.694Z,12.07
2022-09-12T03:21:05.706Z,12.17
2022-09-12T03:22:05.675Z,12.04
2022-09-12T03:23:05.667Z,12.07
2022-09-12T03:24:05.674Z,12.09
2022-09-12T03:25:05.629Z,12.01
2022-09-12T03:26:05.634Z,11.94
2022-09-12T03:27:05.631Z,11.76
2022-09-12T03:28:05.615Z,11.82
2022-09-12T03:29:05.616Z,11.79
2022-09-12T03:30:05.591Z,11.91
2022-09-12T03:31:05.638Z,11.79
2022-09-12T03:32:05.573Z,11.76
2022-09-12T03:33:05.551Z,11.99
2022-09-12T03:34:05.600Z,11.94
2022-09-12T03:35:05.561Z,12.01
2022-09-12T03:36:05.559Z,11.86
2022-09-12T03:37:05.514Z,11.94
2022-09-12T03:38:05.501Z,11.91
2022-09-12T03:39:05.495Z,11.91
2022-09-12T03:40:05.509Z,11.85
2022-09-12T03:41:05.486Z,11.80
2022-09-12T03:42:05.459Z,11.98
2022-09-12T03:43:05.455Z,11.76
2022-09-12T03:44:05.459Z,11.80
2022-09-12T03:45:05.443Z,11.94
2022-09-12T03:46:05.468Z,11.78
2022-09-12T03:47:10.550Z,11.82
2022-09-12T03:48:06.427Z,11.85
2022-09-12T03:49:05.391Z,11.95
2022-09-12T03:50:05.394Z,11.94
2022-09-12T03:51:05.382Z,11.90
2022-09-12T03:52:05.397Z,12.02
2022-09-12T03:53:05.366Z,12.02
2022-09-12T03:54:05.354Z,12.05
2022-09-12T03:55:05.334Z,12.04
2022-09-12T03:56:05.322Z,11.96
2022-09-12T03:57:05.319Z,11.99
2022-09-12T03:58:05.323Z,11.91
2022-09-12T03:59:05.303Z,12.04
2022-09-12T04:00:05.294Z,12.02
2022-09-12T04:01:05.337Z,12.05
2022-09-12T04:02:05.319Z,12.12
2022-09-12T04:03:05.265Z,12.09
2022-09-12T04:04:05.249Z,11.96
2022-09-12T04:05:05.276Z,12.01
2022-09-12T04:06:05.229Z,12.05
2022-09-12T04:07:05.228Z,12.01
2022-09-12T04:08:05.206Z,11.98
2022-09-12T04:09:05.210Z,11.98
2022-09-12T04:10:05.208Z,11.94
2022-09-12T04:11:05.200Z,11.96
2022-09-12T04:12:05.282Z,11.95
2022-09-12T04:13:05.160Z,11.91
2022-09-12T04:14:05.140Z,11.91
2022-09-12T04:15:05.129Z,12.01
2022-09-12T04:16:05.135Z,11.91
2022-09-12T04:17:05.151Z,12.05
2022-09-12T04:18:06.089Z,12.04
2022-09-12T04:19:06.083Z,12.04
2022-09-12T04:20:05.085Z,12.05
2022-09-12T04:21:05.078Z,12.09
2022-09-12T04:22:05.059Z,12.07
2022-09-12T04:23:05.167Z,12.07
2022-09-12T04:24:05.053Z,12.10
2022-09-12T04:25:05.040Z,12.14
2022-09-12T04:26:05.024Z,12.21
2022-09-12T04:27:07.857Z,12.16
2022-09-12T04:28:06.032Z,12.20
2022-09-12T04:29:04.996Z,12.23
2022-09-12T04:30:04.988Z,12.23
2022-09-12T04:31:05.059Z,12.27
2022-09-12T04:32:04.966Z,12.32
2022-09-12T04:33:07.968Z,12.32
2022-09-12T04:34:05.972Z,12.27
2022-09-12T04:35:04.947Z,12.28
2022-09-12T04:36:04.955Z,12.27
2022-09-12T04:37:04.911Z,12.20
2022-09-12T04:38:04.906Z,12.21
2022-09-12T04:39:04.918Z,12.29
2022-09-12T04:40:04.924Z,12.28
2022-09-12T04:41:04.882Z,12.17
2022-09-12T04:42:04.879Z,12.31
2022-09-12T04:43:04.869Z,12.28
2022-09-12T04:44:04.883Z,12.37
2022-09-12T04:45:04.845Z,12.28
2022-09-12T04:46:04.858Z,12.21
2022-09-12T04:47:04.828Z,12.29
2022-09-12T04:48:04.815Z,12.24
2022-09-12T04:49:04.805Z,12.24
2022-09-12T04:50:04.816Z,12.27
2022-09-12T04:51:04.787Z,12.32
2022-09-12T04:52:04.778Z,12.24
2022-09-12T04:53:04.766Z,12.29
2022-09-12T04:54:04.766Z,12.35
2022-09-12T04:55:04.765Z,12.23
2022-09-12T04:56:04.743Z,12.23
2022-09-12T04:57:04.762Z,12.19
2022-09-12T04:58:04.736Z,12.24
2022-09-12T04:59:04.721Z,12.24
2022-09-12T05:00:07.216Z,12.29
2022-09-12T05:01:05.780Z,12.37
2022-09-12T05:02:04.703Z,12.28
2022-09-12T05:03:04.669Z,12.37
2022-09-12T05:04:04.655Z,12.32
2022-09-12T05:05:04.664Z,12.28
2022-09-12T05:06:04.636Z,12.29
2022-09-12T05:07:04.652Z,12.23
2022-09-12T05:08:04.606Z,12.07
2022-09-12T05:09:04.623Z,12.14
2022-09-12T05:10:04.621Z,12.14
2022-09-12T05:11:04.585Z,12.17
2022-09-12T05:12:05.673Z,12.12
2022-09-12T05:13:05.563Z,12.17
2022-09-12T05:14:04.551Z,12.09
2022-09-12T05:15:04.553Z,12.02
2022-09-12T05:16:04.537Z,12.05
2022-09-12T05:17:04.609Z,11.95
2022-09-12T05:18:04.508Z,11.95
2022-09-12T05:19:04.501Z,11.80
2022-09-12T05:20:04.494Z,11.95
2022-09-12T05:21:04.498Z,11.99
2022-09-12T05:22:04.496Z,12.02
2022-09-12T05:23:04.456Z,12.09
2022-09-12T05:24:04.463Z,12.10
2022-09-12T05:25:04.444Z,12.12
2022-09-12T05:26:04.446Z,12.24
2022-09-12T05:27:04.451Z,12.27
2022-09-12T05:28:04.412Z,12.16
2022-09-12T05:29:04.418Z,12.13
2022-09-12T05:30:04.403Z,12.20
2022-09-12T05:31:04.422Z,12.23
2022-09-12T05:32:04.393Z,12.23
2022-09-12T05:33:04.360Z,12.32
2022-09-12T05:34:04.354Z,12.27
2022-09-12T05:35:04.344Z,12.23
2022-09-12T05:36:04.344Z,12.28
2022-09-12T05:37:04.317Z,12.21
2022-09-12T05:38:04.311Z,12.17
2022-09-12T05:39:04.309Z,12.19
2022-09-12T05:40:04.333Z,12.23
2022-09-12T05:41:05.317Z,12.17
2022-09-12T05:42:04.274Z,12.34
2022-09-12T05:43:04.270Z,12.32
2022-09-12T05:44:04.255Z,12.29
2022-09-12T05:45:04.259Z,12.31
2022-09-12T05:46:04.299Z,12.42
2022-09-12T05:47:04.250Z,12.45
2022-09-12T05:48:04.214Z,12.45
2022-09-12T05:49:04.231Z,12.45
2022-09-12T05:50:04.200Z,12.42
2022-09-12T05:51:04.186Z,12.46
2022-09-12T05:52:04.175Z,12.57
2022-09-12T05:53:04.192Z,12.57
2022-09-12T05:54:04.182Z,12.50
2022-09-12T05:55:04.161Z,12.41
2022-09-12T05:56:04.146Z,12.39
2022-09-12T05:57:04.146Z,12.45
2022-09-12T05:58:04.123Z,12.57
2022-09-12T05:59:04.123Z,12.56
2022-09-12T06:00:04.114Z,12.46
2022-09-12T06:01:04.178Z,12.52
2022-09-12T06:02:04.151Z,12.52
2022-09-12T06:03:04.086Z,12.46
2022-09-12T06:04:04.050Z,12.41
2022-09-12T06:05:04.090Z,12.54
2022-09-12T06:06:04.045Z,12.41
2022-09-12T06:07:04.030Z,12.45
2022-09-12T06:08:04.013Z,12.31
2022-09-12T06:09:04.013Z,12.34
2022-09-12T06:10:04.031Z,12.27
2022-09-12T06:11:04.001Z,12.31
2022-09-12T06:12:03.991Z,12.29
2022-09-12T06:13:03.982Z,12.37
2022-09-12T06:14:03.965Z,12.35
2022-09-12T06:15:03.985Z,12.45
2022-09-12T06:16:03.949Z,12.42
2022-09-12T06:17:03.977Z,12.53
2022-09-12T06:18:03.924Z,12.41
2022-09-12T06:19:03.907Z,12.53
2022-09-12T06:20:03.904Z,12.60
2022-09-12T06:21:03.917Z,12.54
2022-09-12T06:22:03.897Z,12.56
2022-09-12T06:23:03.894Z,12.53
2022-09-12T06:24:03.868Z,12.39
2022-09-12T06:25:03.858Z,12.54
2022-09-12T06:26:03.854Z,12.53
2022-09-12T06:27:03.864Z,12.41
2022-09-12T06:28:03.837Z,12.57
2022-09-12T06:29:03.830Z,12.60
2022-09-12T06:30:03.802Z,12.78
2022-09-12T06:31:03.889Z,12.72
2022-09-12T06:32:03.820Z,12.74
2022-09-12T06:33:03.795Z,12.59
2022-09-12T06:34:03.789Z,12.71
2022-09-12T06:35:03.779Z,12.71
2022-09-12T06:36:03.749Z,12.54
2022-09-12T06:37:03.740Z,12.52
2022-09-12T06:38:03.738Z,12.60
2022-09-12T06:39:03.729Z,12.59
2022-09-12T06:40:03.764Z,12.70
2022-09-12T06:41:03.695Z,12.65
2022-09-12T06:42:03.767Z,12.70
2022-09-12T06:43:03.683Z,12.75
2022-09-12T06:44:03.676Z,12.78
2022-09-12T06:45:03.671Z,12.87
2022-09-12T06:46:03.688Z,12.85
2022-09-12T06:47:03.663Z,12.93
2022-09-12T06:48:03.622Z,12.93
2022-09-12T06:49:03.623Z,12.87
2022-09-12T06:50:03.609Z,12.90
2022-09-12T06:51:03.620Z,12.85
2022-09-12T06:52:03.583Z,12.90
2022-09-12T06:53:03.574Z,12.93
2022-09-12T06:54:03.577Z,12.95
2022-09-12T06:55:03.565Z,12.83
2022-09-12T06:56:03.564Z,13.00
2022-09-12T06:57:03.541Z,13.04
2022-09-12T06:58:03.529Z,12.82
2022-09-12T06:59:03.550Z,12.90
2022-09-12T07:00:03.512Z,12.89
2022-09-12T07:01:03.584Z,12.93
2022-09-12T07:02:03.527Z,13.17
2022-09-12T07:03:03.481Z,13.14
2022-09-12T07:04:03.580Z,13.10
2022-09-12T07:05:03.473Z,13.11
2022-09-12T07:06:03.455Z,13.10
2022-09-12T07:07:03.451Z,13.08
2022-09-12T07:08:03.437Z,13.14
2022-09-12T07:09:03.435Z,13.11
2022-09-12T07:10:03.438Z,13.12
2022-09-12T07:11:03.413Z,13.11
2022-09-12T07:12:03.384Z,13.14
2022-09-12T07:13:03.377Z,13.20
2022-09-12T07:14:03.377Z,13.11
2022-09-12T07:15:03.368Z,13.00
2022-09-12T07:16:03.337Z,13.03
2022-09-12T07:17:03.413Z,12.96
2022-09-12T07:18:03.327Z,13.00
2022-09-12T07:19:03.303Z,13.03
2022-09-12T07:20:03.300Z,13.12
2022-09-12T07:21:03.286Z,13.20
2022-09-12T07:22:03.330Z,13.30
2022-09-12T07:23:03.272Z,13.19
2022-09-12T07:24:03.257Z,13.22
2022-09-12T07:25:03.256Z,13.01
2022-09-12T07:26:03.240Z,13.04
2022-09-12T07:27:03.232Z,13.15
2022-09-12T07:28:03.244Z,13.04
2022-09-12T07:29:25.584Z,13.10
2022-09-12T07:30:05.206Z,13.08
2022-09-12T07:31:03.237Z,13.20
2022-09-12T07:32:03.189Z,13.15
2022-09-12T07:33:03.182Z,13.25
2022-09-12T07:34:03.177Z,13.30
2022-09-12T07:35:03.154Z,13.39
2022-09-12T07:36:35.072Z,13.28
2022-09-12T07:37:03.153Z,13.30
2022-09-12T07:38:03.120Z,13.51
2022-09-12T07:39:03.103Z,13.51
2022-09-12T07:40:03.187Z,13.62
2022-09-12T07:41:03.081Z,13.64
2022-09-12T07:42:03.092Z,13.69
2022-09-12T07:43:03.079Z,13.78
2022-09-12T07:44:03.059Z,13.92
2022-09-12T07:45:03.067Z,13.96
2022-09-12T07:46:03.055Z,14.02
2022-09-12T07:47:03.025Z,13.96
2022-09-12T07:48:03.022Z,14.03
2022-09-12T07:49:03.006Z,14.00
2022-09-12T07:50:03.015Z,14.07
2022-09-12T07:51:02.996Z,14.09
2022-09-12T07:52:02.976Z,14.09
2022-09-12T07:53:02.977Z,14.09
2022-09-12T07:54:02.970Z,14.09
2022-09-12T07:55:02.977Z,14.10
2022-09-12T07:56:02.939Z,14.14
2022-09-12T07:57:02.938Z,14.24
2022-09-12T07:58:02.915Z,14.28
2022-09-12T07:59:02.959Z,14.35
2022-09-12T08:00:02.898Z,14.52
2022-09-12T08:01:02.953Z,14.51
2022-09-12T08:02:02.922Z,14.61
2022-09-12T08:03:02.897Z,14.69
2022-09-12T08:04:02.884Z,14.68
2022-09-12T08:05:02.847Z,14.61
2022-09-12T08:06:02.837Z,14.51
2022-09-12T08:07:02.829Z,14.55
2022-09-12T08:08:02.847Z,14.52
2022-09-12T08:09:02.839Z,14.47
2022-09-12T08:10:02.800Z,14.61
2022-09-12T08:11:02.789Z,14.60
2022-09-12T08:12:02.822Z,14.72
2022-09-12T08:13:02.768Z,14.81
2022-09-12T08:14:02.805Z,14.99
2022-09-12T08:15:02.748Z,15.10
2022-09-12T08:16:02.779Z,15.06
2022-09-12T08:17:02.731Z,15.14
2022-09-12T08:18:02.718Z,15.28
2022-09-12T08:19:02.738Z,15.39
2022-09-12T08:20:02.705Z,15.54
2022-09-12T08:21:02.695Z,15.65
2022-09-12T08:22:02.719Z,15.87
2022-09-12T08:23:02.653Z,16.12
2022-09-12T08:24:02.680Z,16.20
2022-09-12T08:25:02.652Z,16.27
2022-09-12T08:26:05.945Z,16.38
2022-09-12T08:27:03.632Z,16.21
2022-09-12T08:28:02.622Z,16.25
2022-09-12T08:29:02.631Z,16.41
2022-09-12T08:30:02.600Z,16.61
2022-09-12T08:31:02.617Z,16.70
2022-09-12T08:32:02.576Z,16.82
2022-09-12T08:33:03.561Z,16.85
2022-09-12T08:34:02.574Z,16.89
2022-09-12T08:35:02.570Z,17.04
2022-09-12T08:36:02.539Z,17.19
2022-09-12T08:37:02.518Z,17.37
2022-09-12T08:38:02.519Z,17.44
2022-09-12T08:39:02.513Z,17.58
2022-09-12T08:40:02.562Z,18.10
2022-09-12T08:41:02.496Z,18.32
2022-09-12T08:42:02.523Z,18.51
2022-09-12T08:43:02.473Z,18.73
2022-09-12T08:44:02.465Z,18.94
2022-09-12T08:45:02.450Z,19.28
2022-09-12T08:46:02.507Z,19.48
2022-09-12T08:47:02.448Z,19.69
2022-09-12T08:48:02.473Z,19.77
2022-09-12T08:49:02.412Z,19.83
2022-09-12T08:50:02.410Z,19.80
2022-09-12T08:51:02.403Z,20.21
2022-09-12T08:52:02.400Z,20.24
2022-09-12T08:53:02.398Z,20.36
2022-09-12T08:54:02.364Z,20.28
2022-09-12T08:55:02.345Z,20.70
2022-09-12T08:56:02.350Z,20.76
2022-09-12T08:57:02.330Z,20.88
2022-09-12T08:58:02.342Z,21.07
2022-09-12T08:59:02.322Z,20.62
2022-09-12T09:00:02.306Z,20.88
2022-09-12T09:01:02.316Z,21.13
2022-09-12T09:02:02.298Z,21.19
2022-09-12T09:03:02.293Z,21.37
2022-09-12T09:04:02.258Z,21.24
2022-09-12T09:05:02.249Z,21.04
2022-09-12T09:06:02.243Z,21.07
2022-09-12T09:07:02.228Z,21.14
2022-09-12T09:08:02.221Z,21.29
2022-09-12T09:09:02.227Z,21.56
2022-09-12T09:10:02.227Z,21.62
2022-09-12T09:11:02.195Z,21.80
2022-09-12T09:12:02.179Z,21.68
2022-09-12T09:13:02.172Z,21.84
2022-09-12T09:14:05.207Z,21.86
2022-09-12T09:15:03.186Z,21.83
2022-09-12T09:16:02.200Z,22.06
2022-09-12T09:17:02.134Z,22.17
2022-09-12T09:18:02.126Z,21.65
2022-09-12T09:19:02.128Z,21.43
2022-09-12T09:20:02.093Z,21.56
2022-09-12T09:21:03.119Z,21.43
2022-09-12T09:22:02.090Z,21.65
2022-09-12T09:23:02.060Z,21.79
2022-09-12T09:24:02.079Z,21.82
2022-09-12T09:25:02.048Z,21.86
2022-09-12T09:26:02.059Z,21.75
2022-09-12T09:27:02.027Z,21.90
2022-09-12T09:28:02.026Z,21.99
2022-09-12T09:29:02.005Z,22.00
2022-09-12T09:30:02.012Z,22.15
2022-09-12T09:31:02.083Z,22.25
2022-09-12T09:32:01.975Z,22.15
2022-09-12T09:33:01.962Z,21.94
2022-09-12T09:34:01.953Z,22.21
2022-09-12T09:35:01.951Z,21.83
2022-09-12T09:36:01.936Z,21.99
2022-09-12T09:37:01.966Z,21.98
2022-09-12T09:38:01.934Z,22.12
2022-09-12T09:39:01.928Z,22.21
2022-09-12T09:40:01.950Z,22.06
2022-09-12T09:41:01.902Z,22.22
2022-09-12T09:42:01.881Z,22.31
2022-09-12T09:43:01.902Z,22.28
2022-09-12T09:44:01.888Z,22.27
2022-09-12T09:45:01.861Z,22.36
2022-09-12T09:46:01.907Z,22.46
2022-09-12T09:47:01.837Z,22.52
2022-09-12T09:48:01.842Z,22.42
2022-09-12T09:49:04.365Z,22.45
2022-09-12T09:50:01.797Z,22.51
2022-09-12T09:51:01.794Z,22.35
2022-09-12T09:52:01.782Z,22.36
2022-09-12T09:53:01.784Z,22.37
2022-09-12T09:54:01.815Z,22.49
2022-09-12T09:55:01.772Z,22.49
2022-09-12T09:56:01.748Z,22.46
2022-09-12T09:57:01.736Z,22.30
2022-09-12T09:58:01.718Z,22.42
2022-09-12T09:59:01.718Z,22.47
2022-09-12T10:00:01.716Z,22.43
2022-09-12T10:01:01.752Z,22.43
2022-09-12T10:02:01.968Z,22.57
2022-09-12T10:03:01.724Z,22.49
2022-09-12T10:04:01.659Z,22.42
2022-09-12T10:05:01.661Z,22.49
2022-09-12T10:06:01.669Z,22.58
2022-09-12T10:07:01.650Z,22.51
2022-09-12T10:08:01.612Z,22.52
2022-09-12T10:09:02.615Z,22.60
2022-09-12T10:10:01.601Z,22.77
2022-09-12T10:11:01.586Z,22.70
2022-09-12T10:12:01.598Z,22.65
2022-09-12T10:13:01.574Z,22.67
2022-09-12T10:14:01.565Z,22.57
2022-09-12T10:15:01.556Z,22.64
2022-09-12T10:16:01.630Z,22.62
2022-09-12T10:17:01.537Z,22.61
2022-09-12T10:18:01.554Z,22.57
2022-09-12T10:19:01.549Z,22.47
2022-09-12T10:20:22.491Z,22.52
2022-09-12T10:21:02.502Z,22.49
2022-09-12T10:22:01.491Z,22.45
2022-09-12T10:23:01.489Z,22.51
2022-09-12T10:24:01.484Z,22.52
2022-09-12T10:25:01.473Z,22.61
2022-09-12T10:26:01.434Z,22.47
2022-09-12T10:27:01.453Z,22.30
2022-09-12T10:28:01.437Z,22.14
2022-09-12T10:29:01.427Z,22.31
2022-09-12T10:30:01.417Z,22.36
2022-09-12T10:31:01.481Z,22.22
2022-09-12T10:32:01.386Z,22.47
2022-09-12T10:33:01.377Z,22.51
2022-09-12T10:34:01.397Z,22.58
2022-09-12T10:35:01.367Z,22.62
2022-09-12T10:36:01.354Z,22.62
2022-09-12T10:37:01.360Z,22.73
2022-09-12T10:38:01.338Z,22.79
2022-09-12T10:39:01.352Z,22.80
2022-09-12T10:40:02.372Z,22.94
2022-09-12T10:41:01.297Z,22.91
2022-09-12T10:42:01.286Z,22.76
2022-09-12T10:43:01.286Z,22.70
2022-09-12T10:44:01.273Z,22.72
2022-09-12T10:45:01.283Z,22.64
2022-09-12T10:46:01.318Z,22.72
2022-09-12T10:47:01.244Z,22.72
2022-09-12T10:48:05.451Z,22.67
2022-09-12T10:49:03.233Z,22.70
2022-09-12T10:50:01.228Z,22.75
2022-09-12T10:51:01.209Z,22.77
2022-09-12T10:52:01.194Z,22.94
2022-09-12T10:53:01.210Z,23.13
2022-09-12T10:54:01.174Z,23.40
2022-09-12T10:55:01.205Z,23.47
2022-09-12T10:56:01.158Z,23.47
2022-09-12T10:57:01.146Z,23.69
2022-09-12T10:58:02.151Z,23.58
2022-09-12T10:59:01.144Z,23.76
2022-09-12T11:00:01.132Z,23.94
2022-09-12T11:01:01.138Z,23.98
2022-09-12T11:02:01.172Z,24.22
2022-09-12T11:03:01.096Z,24.18
2022-09-12T11:04:01.085Z,24.20
2022-09-12T11:05:01.101Z,24.08
2022-09-12T11:06:01.063Z,24.03
2022-09-12T11:07:01.050Z,24.05
2022-09-12T11:08:01.054Z,24.16
2022-09-12T11:09:01.036Z,24.02
2022-09-12T11:10:01.043Z,24.05
2022-09-12T11:11:01.014Z,24.12
2022-09-12T11:12:01.007Z,24.24
2022-09-12T11:13:00.994Z,24.18
2022-09-12T11:14:00.976Z,24.03
2022-09-12T11:15:00.980Z,23.78
2022-09-12T11:16:01.025Z,23.83
2022-09-12T11:17:00.943Z,23.83
2022-09-12T11:18:00.952Z,23.69
2022-09-12T11:19:00.956Z,23.76
2022-09-12T11:20:00.928Z,23.80
2022-09-12T11:21:00.935Z,23.66
2022-09-12T11:22:00.925Z,23.61
2022-09-12T11:23:00.900Z,23.42
2022-09-12T11:24:00.869Z,23.38
2022-09-12T11:25:00.869Z,23.50
2022-09-12T11:26:00.854Z,23.32
2022-09-12T11:27:00.870Z,23.28
2022-09-12T11:28:00.841Z,23.35
2022-09-12T11:29:00.831Z,23.47
2022-09-12T11:30:00.821Z,23.27
2022-09-12T11:31:00.887Z,23.48
2022-09-12T11:32:00.815Z,23.51
2022-09-12T11:33:00.813Z,23.51
2022-09-12T11:34:00.780Z,23.69
2022-09-12T11:35:00.770Z,23.72
2022-09-12T11:36:00.755Z,23.69
2022-09-12T11:37:00.754Z,23.54
2022-09-12T11:38:00.747Z,23.55
2022-09-12T11:39:00.748Z,23.47
2022-09-12T11:40:00.777Z,23.61
2022-09-12T11:41:00.714Z,23.60
2022-09-12T11:42:00.697Z,23.73
2022-09-12T11:43:00.693Z,23.87
2022-09-12T11:44:00.698Z,24.08
2022-09-12T11:45:00.677Z,24.18
2022-09-12T11:46:00.678Z,24.24
2022-09-12T11:47:00.658Z,24.16
2022-09-12T11:48:00.649Z,24.16
2022-09-12T11:49:00.680Z,24.18
2022-09-12T11:50:00.629Z,24.25
2022-09-12T11:51:00.637Z,24.27
2022-09-12T11:52:00.629Z,24.30
2022-09-12T11:53:00.611Z,24.27
2022-09-12T11:54:00.603Z,24.39
2022-09-12T11:55:00.591Z,24.45
2022-09-12T11:56:00.563Z,24.30
2022-09-12T11:57:00.569Z,24.27
2022-09-12T11:58:00.540Z,24.40
2022-09-12T11:59:00.549Z,24.06
2022-09-12T12:00:00.552Z,24.06
2022-09-12T12:01:00.529Z,23.85
2022-09-12T12:02:00.566Z,24.10
2022-09-12T12:03:00.508Z,24.02
2022-09-12T12:04:00.518Z,24.03
2022-09-12T12:05:00.502Z,24.20
2022-09-12T12:06:00.467Z,24.31
2022-09-12T12:07:00.678Z,24.34
2022-09-12T12:08:00.456Z,24.20
2022-09-12T12:09:00.456Z,24.43
2022-09-12T12:10:00.428Z,24.25
2022-09-12T12:11:00.418Z,24.35
2022-09-12T12:12:00.434Z,24.30
2022-09-12T12:13:00.401Z,24.03
2022-09-12T12:14:00.390Z,24.06
2022-09-12T12:15:00.383Z,24.18
2022-09-12T12:16:00.436Z,24.27
2022-09-12T12:17:00.362Z,24.34
2022-09-12T12:18:00.377Z,24.39
2022-09-12T12:19:00.341Z,24.34
2022-09-12T12:20:05.598Z,24.30
2022-09-12T12:21:01.327Z,24.24
2022-09-12T12:22:00.328Z,24.09
2022-09-12T12:23:00.323Z,24.18
2022-09-12T12:24:00.292Z,24.32
2022-09-12T12:25:00.301Z,24.32
2022-09-12T12:26:00.286Z,24.21
2022-09-12T12:27:00.270Z,24.46
2022-09-12T12:28:00.268Z,24.50
2022-09-12T12:29:00.255Z,24.58
2022-09-12T12:30:00.245Z,24.80
2022-09-12T12:31:00.284Z,24.88
2022-09-12T12:32:00.212Z,24.99
2022-09-12T12:33:00.203Z,24.95
2022-09-12T12:34:00.197Z,24.87
2022-09-12T12:35:00.207Z,24.98
2022-09-12T12:36:00.187Z,24.90
2022-09-12T12:37:03.161Z,24.68
2022-09-12T12:38:00.174Z,24.55
2022-09-12T12:39:00.164Z,24.46
2022-09-12T12:40:00.209Z,24.27
2022-09-12T12:41:00.132Z,24.16
2022-09-12T12:42:00.111Z,24.16
2022-09-12T12:43:00.098Z,24.20
2022-09-12T12:44:00.121Z,24.06
2022-09-12T12:45:00.092Z,23.95
2022-09-12T12:46:00.155Z,23.88
2022-09-12T12:47:00.061Z,23.85
2022-09-12T12:48:00.054Z,23.85
2022-09-12T12:49:00.059Z,24.05
2022-09-12T12:50:00.037Z,24.28
2022-09-12T12:51:00.042Z,24.31
2022-09-12T12:52:00.034Z,24.40
2022-09-12T12:53:00.005Z,24.45
2022-09-12T12:53:59.993Z,24.43